createdAt,value
2019-02-25T00:03:25.988Z,15.90
2019-02-25T00:05:54.595Z,15.20
2019-02-25T00:08:23.267Z,15.80
2019-02-25T00:11:11.261Z,14.55
2019-02-25T00:16:09.471Z,13.10
2019-02-25T00:18:38.008Z,9.90
2019-02-25T00:21:06.659Z,12.18
2019-02-25T00:23:35.274Z,11.48
2019-02-25T00:26:03.910Z,10.85
2019-02-25T00:28:32.514Z,11.33
2019-02-25T00:31:01.058Z,12.95
2019-02-25T00:33:29.623Z,16.32
2019-02-25T00:35:58.171Z,14.40
2019-02-25T00:38:26.743Z,15.72
2019-02-25T00:40:55.291Z,16.70
2019-02-25T00:43:23.835Z,19.32
2019-02-25T00:45:52.419Z,22.07
2019-02-25T00:48:21.308Z,21.33
2019-02-25T00:50:49.875Z,20.52
2019-02-25T00:53:18.417Z,17.70
2019-02-25T00:55:47.028Z,20.88
2019-02-25T00:58:15.603Z,17.67
2019-02-25T01:00:44.223Z,12.18
2019-02-25T01:03:12.766Z,15.28
2019-02-25T01:05:41.400Z,14.10
2019-02-25T01:08:10.001Z,10.95
2019-02-25T01:10:38.855Z,11.83
2019-02-25T01:13:07.463Z,16.95
2019-02-25T01:15:36.175Z,11.25
2019-02-25T01:18:05.115Z,15.40
2019-02-25T01:20:33.779Z,14.47
2019-02-25T01:23:02.398Z,16.30
2019-02-25T01:25:30.943Z,15.45
2019-02-25T01:27:59.518Z,14.50
2019-02-25T01:30:28.074Z,13.43
2019-02-25T01:32:56.660Z,11.75
2019-02-25T01:35:37.924Z,11.18
2019-02-25T01:38:06.565Z,8.23
2019-02-25T01:40:35.175Z,9.83
2019-02-25T01:43:05.417Z,13.10
2019-02-25T01:45:34.043Z,11.28
2019-02-25T01:48:02.578Z,9.70
2019-02-25T01:50:31.167Z,8.10
2019-02-25T01:52:59.715Z,10.20
2019-02-25T01:55:28.335Z,8.85
2019-02-25T01:57:56.899Z,8.80
2019-02-25T02:00:25.439Z,8.73
2019-02-25T02:02:53.983Z,8.93
2019-02-25T02:05:24.464Z,9.65
2019-02-25T02:07:52.882Z,10.28
2019-02-25T02:10:21.480Z,10.53
2019-02-25T02:12:50.100Z,9.65
2019-02-25T02:15:20.847Z,9.90
2019-02-25T02:17:49.484Z,11.38
2019-02-25T02:20:18.572Z,10.10
2019-02-25T02:22:47.102Z,10.58
2019-02-25T02:25:15.775Z,11.40
2019-02-25T02:27:44.398Z,12.15
2019-02-25T02:30:33.831Z,11.12
2019-02-25T02:33:02.378Z,12.35
2019-02-25T02:35:30.976Z,11.93
2019-02-25T02:37:59.559Z,10.85
2019-02-25T02:40:28.107Z,11.40
2019-02-25T02:43:20.485Z,12.25
2019-02-25T02:45:57.915Z,14.80
2019-02-25T02:48:47.359Z,10.82
2019-02-25T02:51:15.901Z,11.00
2019-02-25T02:54:04.417Z,7.85
2019-02-25T02:56:32.959Z,13.28
2019-02-25T02:59:01.500Z,9.75
2019-02-25T03:01:30.082Z,11.55
2019-02-25T03:03:58.635Z,12.95
2019-02-25T03:06:27.219Z,14.85
2019-02-25T03:08:55.764Z,11.38
2019-02-25T03:11:24.311Z,14.75
2019-02-25T03:13:52.968Z,10.40
2019-02-25T03:16:21.514Z,13.22
2019-02-25T03:18:50.056Z,11.73
2019-02-25T03:21:18.643Z,14.25
2019-02-25T03:23:47.184Z,12.05
2019-02-25T03:26:15.787Z,12.25
2019-02-25T03:28:44.464Z,11.28
2019-02-25T03:31:13.030Z,15.60
2019-02-25T03:33:41.611Z,11.80
2019-02-25T03:36:10.173Z,10.23
2019-02-25T03:38:38.712Z,11.83
2019-02-25T03:41:07.359Z,14.58
2019-02-25T03:43:36.059Z,14.58
2019-02-25T03:46:04.707Z,10.88
2019-02-25T03:48:33.251Z,11.97
2019-02-25T03:51:21.154Z,13.22
2019-02-25T03:56:17.484Z,10.32
2019-02-25T03:58:46.196Z,12.33
2019-02-25T04:01:14.880Z,13.05
2019-02-25T04:03:43.575Z,13.95
2019-02-25T04:06:12.212Z,9.63
2019-02-25T04:08:40.908Z,9.98
2019-02-25T04:11:09.465Z,11.33
2019-02-25T04:13:38.017Z,12.43
2019-02-25T04:16:06.555Z,13.78
2019-02-25T04:18:36.175Z,8.70
2019-02-25T04:21:04.798Z,9.48
2019-02-25T04:23:33.363Z,12.93
2019-02-25T04:26:01.911Z,13.45
2019-02-25T04:28:30.491Z,17.05
2019-02-25T04:30:59.137Z,14.73
2019-02-25T04:33:27.692Z,13.08
2019-02-25T04:35:56.924Z,12.73
2019-02-25T04:38:45.008Z,14.45
2019-02-25T04:41:14.254Z,10.68
2019-02-25T04:43:42.794Z,11.25
2019-02-25T04:46:11.339Z,11.95
2019-02-25T04:48:39.885Z,10.63
2019-02-25T04:51:08.437Z,9.65
2019-02-25T04:53:37.058Z,14.55
2019-02-25T04:56:05.710Z,14.15
2019-02-25T04:58:53.638Z,13.38
2019-02-25T05:01:22.259Z,11.00
2019-02-25T05:03:50.827Z,13.32
2019-02-25T05:06:19.402Z,14.23
2019-02-25T05:08:47.953Z,10.28
2019-02-25T05:11:16.755Z,10.93
2019-02-25T05:13:45.329Z,10.55
2019-02-25T05:16:13.949Z,11.95
2019-02-25T05:19:01.856Z,12.58
2019-02-25T05:23:58.189Z,13.03
2019-02-25T05:26:26.722Z,11.48
2019-02-25T05:28:55.202Z,10.58
2019-02-25T05:31:23.775Z,14.18
2019-02-25T05:33:52.742Z,10.65
2019-02-25T05:36:21.287Z,10.78
2019-02-25T05:38:49.857Z,11.93
2019-02-25T05:41:18.503Z,14.90
2019-02-25T05:43:47.075Z,11.85
2019-02-25T05:46:15.626Z,12.45
2019-02-25T05:48:44.203Z,12.43
2019-02-25T05:51:12.759Z,14.47
2019-02-25T05:53:41.296Z,12.90
2019-02-25T05:56:10.159Z,14.65
2019-02-25T05:58:38.714Z,12.10
2019-02-25T06:01:07.631Z,11.50
2019-02-25T06:03:36.430Z,11.85
2019-02-25T06:06:05.001Z,10.25
2019-02-25T06:08:33.615Z,10.93
2019-02-25T06:11:03.788Z,11.97
2019-02-25T06:13:32.415Z,11.88
2019-02-25T06:16:01.028Z,10.88
2019-02-25T06:18:29.982Z,9.18
2019-02-25T06:20:58.517Z,14.20
2019-02-25T06:23:27.131Z,11.12
2019-02-25T06:25:55.823Z,13.05
2019-02-25T06:28:26.340Z,13.08
2019-02-25T06:30:54.574Z,9.20
2019-02-25T06:33:23.530Z,8.70
2019-02-25T06:35:52.095Z,10.45
2019-02-25T06:38:21.102Z,12.60
2019-02-25T06:40:49.642Z,10.48
2019-02-25T06:43:18.990Z,12.68
2019-02-25T06:45:47.534Z,14.05
2019-02-25T06:48:16.354Z,10.93
2019-02-25T06:50:44.830Z,12.65
2019-02-25T06:53:13.462Z,11.55
2019-02-25T06:55:42.007Z,16.40
2019-02-25T06:58:10.565Z,11.33
2019-02-25T07:00:39.252Z,15.78
2019-02-25T07:03:07.768Z,14.23
2019-02-25T07:05:38.060Z,13.13
2019-02-25T07:08:08.705Z,17.07
2019-02-25T07:13:33.211Z,13.18
2019-02-25T07:16:15.207Z,11.50
2019-02-25T07:18:54.298Z,17.02
2019-02-25T07:26:57.306Z,12.78
2019-02-25T07:29:27.424Z,12.30
2019-02-25T07:31:57.634Z,14.07
2019-02-25T07:34:43.079Z,24.00
2019-02-25T07:37:16.104Z,17.92
2019-02-25T07:42:47.692Z,17.35
2019-02-25T07:45:18.149Z,13.10
2019-02-25T07:47:54.528Z,13.88
2019-02-25T07:50:24.782Z,16.25
2019-02-25T07:52:54.970Z,14.05
2019-02-25T07:55:43.430Z,15.23
2019-02-25T07:58:16.326Z,14.23
2019-02-25T08:00:46.828Z,18.62
2019-02-25T08:03:19.776Z,13.50
2019-02-25T08:05:50.339Z,15.35
2019-02-25T08:08:26.441Z,11.63
2019-02-25T08:10:59.284Z,12.55
2019-02-25T08:13:44.560Z,12.93
2019-02-25T08:16:14.838Z,13.62
2019-02-25T08:18:45.024Z,13.15
2019-02-25T08:29:29.723Z,15.20
2019-02-25T08:37:57.567Z,11.70
2019-02-25T08:49:19.549Z,10.68
2019-02-25T08:51:48.220Z,18.30
2019-02-25T08:54:16.936Z,15.15
2019-02-25T08:56:45.549Z,12.88
2019-02-25T08:59:14.230Z,15.90
2019-02-25T09:01:42.883Z,13.50
2019-02-25T09:04:11.487Z,16.23
2019-02-25T09:06:40.029Z,14.58
2019-02-25T09:09:08.598Z,9.95
2019-02-25T09:11:37.289Z,11.93
2019-02-25T09:14:05.971Z,11.15
2019-02-25T09:16:34.623Z,17.05
2019-02-25T09:19:03.171Z,11.28
2019-02-25T09:21:32.241Z,10.40
2019-02-25T09:26:56.838Z,16.90
2019-02-25T09:29:25.396Z,13.48
2019-02-25T09:31:54.276Z,11.63
2019-02-25T09:34:25.688Z,14.90
2019-02-25T09:36:54.374Z,13.90
2019-02-25T09:39:23.087Z,12.30
2019-02-25T09:41:51.691Z,13.15
2019-02-25T09:44:20.318Z,17.10
2019-02-25T09:46:49.147Z,13.75
2019-02-25T09:49:17.689Z,21.27
2019-02-25T09:51:46.624Z,13.98
2019-02-25T09:54:15.510Z,12.40
2019-02-25T09:56:44.828Z,11.65
2019-02-25T09:59:13.697Z,12.23
2019-02-25T10:01:42.312Z,11.75
2019-02-25T10:04:11.284Z,11.80
2019-02-25T10:06:39.850Z,11.88
2019-02-25T10:09:08.497Z,12.43
2019-02-25T10:11:37.143Z,10.43
2019-02-25T10:14:05.680Z,11.73
2019-02-25T10:16:34.323Z,14.80
2019-02-25T10:19:03.180Z,15.80
2019-02-25T10:21:33.764Z,18.48
2019-02-25T10:24:02.699Z,11.53
2019-02-25T10:26:31.252Z,12.75
2019-02-25T10:28:59.959Z,12.85
2019-02-25T10:31:28.496Z,15.00
2019-02-25T10:33:57.034Z,13.85
2019-02-25T10:36:25.595Z,13.22
2019-02-25T10:38:54.150Z,12.28
2019-02-25T10:41:23.422Z,13.08
2019-02-25T10:43:53.276Z,18.75
2019-02-25T10:46:21.891Z,13.28
2019-02-25T10:48:54.200Z,14.45
2019-02-25T10:51:20.867Z,13.08
2019-02-25T10:53:51.426Z,10.28
2019-02-25T10:56:28.384Z,11.88
2019-02-25T10:58:57.644Z,10.90
2019-02-25T11:01:27.274Z,12.20
2019-02-25T11:03:55.839Z,16.12
2019-02-25T11:06:43.739Z,16.95
2019-02-25T11:09:22.762Z,11.88
2019-02-25T11:11:52.693Z,10.40
2019-02-25T11:14:21.731Z,12.20
2019-02-25T11:16:52.170Z,11.22
2019-02-25T11:19:22.432Z,11.30
2019-02-25T11:21:51.250Z,11.12
2019-02-25T11:24:21.141Z,10.65
2019-02-25T11:26:50.065Z,13.88
2019-02-25T11:29:18.891Z,11.35
2019-02-25T11:31:49.375Z,13.88
2019-02-25T11:34:17.762Z,10.40
2019-02-25T11:36:50.338Z,9.20
2019-02-25T11:39:18.951Z,8.78
2019-02-25T11:41:47.519Z,8.83
2019-02-25T11:44:35.403Z,10.78
2019-02-25T11:47:04.367Z,9.13
2019-02-25T11:49:32.902Z,11.12
2019-02-25T11:52:01.603Z,10.38
2019-02-25T11:54:30.178Z,8.88
2019-02-25T11:56:58.891Z,11.08
2019-02-25T11:59:27.787Z,9.00
2019-02-25T12:01:56.784Z,8.85
2019-02-25T12:04:25.347Z,9.18
2019-02-25T12:06:54.113Z,8.00
2019-02-25T12:09:22.727Z,6.35
2019-02-25T12:11:51.278Z,8.20
2019-02-25T12:14:19.934Z,9.78
2019-02-25T12:16:48.558Z,7.45
2019-02-25T12:19:18.164Z,8.98
2019-02-25T12:21:46.938Z,9.20
2019-02-25T12:24:15.718Z,7.45
2019-02-25T12:26:44.270Z,11.22
2019-02-25T12:29:12.832Z,7.62
2019-02-25T12:31:41.615Z,5.80
2019-02-25T12:34:10.263Z,7.97
2019-02-25T12:36:38.816Z,10.30
2019-02-25T12:39:07.938Z,6.47
2019-02-25T12:41:36.544Z,7.37
2019-02-25T12:44:05.259Z,11.10
2019-02-25T12:46:33.864Z,8.88
2019-02-25T12:49:02.471Z,10.78
2019-02-25T12:51:31.176Z,7.83
2019-02-25T12:53:59.713Z,11.33
2019-02-25T12:56:28.298Z,10.13
2019-02-25T12:58:56.976Z,8.18
2019-02-25T13:01:25.659Z,7.12
2019-02-25T13:03:54.298Z,7.62
2019-02-25T13:06:23.208Z,5.95
2019-02-25T13:08:51.744Z,7.70
2019-02-25T13:11:20.467Z,6.35
2019-02-25T13:13:49.070Z,6.75
2019-02-25T13:16:17.694Z,6.30
2019-02-25T13:18:46.329Z,8.55
2019-02-25T13:21:14.870Z,6.55
2019-02-25T13:23:43.515Z,5.97
2019-02-25T13:26:12.179Z,11.43
2019-02-25T13:28:41.058Z,7.35
2019-02-25T13:31:10.284Z,7.53
2019-02-25T13:33:39.443Z,6.75
2019-02-25T13:36:30.269Z,7.42
2019-02-25T13:38:58.806Z,6.90
2019-02-25T13:41:27.487Z,7.65
2019-02-25T13:43:56.424Z,9.50
2019-02-25T13:46:25.306Z,8.40
2019-02-25T13:48:53.958Z,8.00
2019-02-25T13:51:22.573Z,8.93
2019-02-25T13:53:51.254Z,7.17
2019-02-25T13:56:19.887Z,7.83
2019-02-25T13:58:50.195Z,6.28
2019-02-25T14:01:18.883Z,8.45
2019-02-25T14:03:47.914Z,6.83
2019-02-25T14:06:16.519Z,5.25
2019-02-25T14:08:45.319Z,4.75
2019-02-25T14:11:14.366Z,5.92
2019-02-25T14:13:45.107Z,4.67
2019-02-25T14:16:13.622Z,9.88
2019-02-25T14:18:42.475Z,6.95
2019-02-25T14:21:11.811Z,8.98
2019-02-25T14:23:40.815Z,7.65
2019-02-25T14:26:09.490Z,6.58
2019-02-25T14:28:39.646Z,10.08
2019-02-25T14:31:09.034Z,9.43
2019-02-25T14:33:38.043Z,9.55
2019-02-25T14:36:07.477Z,9.43
2019-02-25T14:38:37.207Z,7.10
2019-02-25T14:41:06.980Z,7.12
2019-02-25T14:43:41.743Z,7.00
2019-02-25T14:46:07.665Z,11.15
2019-02-25T14:48:37.519Z,10.08
2019-02-25T14:51:06.260Z,6.58
2019-02-25T14:53:34.940Z,8.10
2019-02-25T14:56:04.096Z,10.05
2019-02-25T14:58:35.545Z,7.50
2019-02-25T15:01:03.955Z,10.03
2019-02-25T15:03:32.689Z,6.90
2019-02-25T15:06:01.561Z,6.53
2019-02-25T15:08:30.713Z,6.37
2019-02-25T15:11:02.014Z,6.10
2019-02-25T15:13:30.359Z,9.38
2019-02-25T15:16:00.264Z,5.97
2019-02-25T15:18:31.160Z,6.25
2019-02-25T15:21:00.615Z,8.75
2019-02-25T15:23:30.596Z,7.03
2019-02-25T15:26:05.116Z,8.15
2019-02-25T15:28:29.859Z,8.08
2019-02-25T15:31:00.005Z,10.05
2019-02-25T15:33:30.009Z,10.13
2019-02-25T15:36:01.276Z,7.42
2019-02-25T15:38:31.107Z,9.43
2019-02-25T15:41:01.849Z,5.87
2019-02-25T15:43:32.451Z,8.13
2019-02-25T15:46:01.729Z,5.75
2019-02-25T15:48:30.947Z,6.40
2019-02-25T15:51:00.848Z,4.75
2019-02-25T15:53:29.593Z,7.83
2019-02-25T15:56:01.062Z,4.75
2019-02-25T15:58:28.876Z,6.58
2019-02-25T16:00:57.593Z,6.95
2019-02-25T16:03:26.875Z,4.78
2019-02-25T16:05:59.329Z,6.37
2019-02-25T16:08:26.898Z,5.85
2019-02-25T16:10:58.433Z,6.08
2019-02-25T16:13:27.358Z,5.95
2019-02-25T16:15:56.043Z,5.15
2019-02-25T16:18:27.477Z,7.72
2019-02-25T16:20:54.942Z,5.83
2019-02-25T16:23:25.784Z,5.80
2019-02-25T16:25:56.910Z,5.83
2019-02-25T16:28:25.954Z,7.20
2019-02-25T16:30:54.942Z,10.10
2019-02-25T16:33:24.146Z,5.83
2019-02-25T16:35:53.885Z,7.08
2019-02-25T16:38:24.908Z,8.68
2019-02-25T16:40:56.650Z,7.33
2019-02-25T16:43:23.225Z,5.70
2019-02-25T16:45:52.530Z,5.65
2019-02-25T16:48:24.227Z,6.58
2019-02-25T16:50:51.519Z,7.00
2019-02-25T16:53:20.347Z,7.78
2019-02-25T16:55:49.815Z,6.60
2019-02-25T16:58:19.668Z,5.53
2019-02-25T17:00:48.991Z,5.03
2019-02-25T17:03:17.872Z,6.90
2019-02-25T17:05:47.692Z,7.55
2019-02-25T17:08:18.526Z,5.60
2019-02-25T17:10:48.964Z,7.42
2019-02-25T17:13:17.519Z,5.37
2019-02-25T17:15:46.794Z,7.65
2019-02-25T17:18:16.030Z,8.60
2019-02-25T17:20:45.201Z,8.63
2019-02-25T17:23:34.522Z,9.23
2019-02-25T17:26:05.713Z,7.37
2019-02-25T17:28:34.049Z,7.58
2019-02-25T17:31:02.655Z,8.23
2019-02-25T17:33:32.680Z,6.65
2019-02-25T17:36:01.599Z,6.33
2019-02-25T17:38:30.203Z,9.95
2019-02-25T17:40:59.251Z,7.95
2019-02-25T17:43:29.348Z,7.58
2019-02-25T17:45:58.226Z,9.05
2019-02-25T17:48:27.487Z,6.25
2019-02-25T17:50:57.343Z,7.42
2019-02-25T17:53:28.308Z,15.25
2019-02-25T17:56:01.023Z,13.72
2019-02-25T17:58:29.630Z,12.30
2019-02-25T18:01:00.734Z,16.42
2019-02-25T18:03:29.230Z,14.90
2019-02-25T18:05:58.954Z,12.37
2019-02-25T18:08:29.988Z,11.55
2019-02-25T18:10:58.741Z,9.73
2019-02-25T18:13:28.131Z,9.93
2019-02-25T18:15:57.499Z,8.85
2019-02-25T18:18:27.994Z,10.50
2019-02-25T18:20:56.981Z,7.65
2019-02-25T18:23:26.638Z,9.38
2019-02-25T18:25:58.667Z,16.70
2019-02-25T18:28:26.062Z,11.53
2019-02-25T18:30:54.887Z,14.18
2019-02-25T18:33:25.227Z,14.03
2019-02-25T18:35:53.823Z,12.13
2019-02-25T18:38:23.274Z,13.00
2019-02-25T18:40:52.983Z,10.00
2019-02-25T18:43:22.077Z,14.55
2019-02-25T18:45:52.343Z,10.65
2019-02-25T18:48:22.798Z,15.35
2019-02-25T18:50:52.729Z,14.95
2019-02-25T18:53:22.567Z,18.57
2019-02-25T18:55:54.287Z,22.40
2019-02-25T18:58:22.992Z,12.95
2019-02-25T19:00:52.034Z,13.50
2019-02-25T19:03:21.282Z,17.50
2019-02-25T19:05:51.122Z,12.30
2019-02-25T19:08:22.718Z,12.85
2019-02-25T19:10:53.194Z,13.72
2019-02-25T19:13:23.333Z,13.50
2019-02-25T19:15:54.744Z,17.55
2019-02-25T19:18:23.448Z,10.85
2019-02-25T19:20:53.613Z,16.97
2019-02-25T19:23:23.308Z,18.30
2019-02-25T19:25:52.735Z,16.15
2019-02-25T19:28:23.863Z,23.45
2019-02-25T19:30:52.152Z,25.68
2019-02-25T19:33:22.339Z,17.35
2019-02-25T19:35:52.517Z,19.60
2019-02-25T19:38:22.809Z,18.17
2019-02-25T19:40:53.522Z,21.80
2019-02-25T19:43:22.638Z,19.27
2019-02-25T19:45:51.311Z,21.35
2019-02-25T19:48:21.698Z,27.20
2019-02-25T19:50:51.435Z,22.55
2019-02-25T19:53:20.722Z,41.28
2019-02-25T19:55:51.755Z,34.95
2019-02-25T20:01:23.301Z,29.95
2019-02-25T20:03:53.878Z,28.70
2019-02-25T20:06:23.607Z,17.23
2019-02-25T20:08:55.896Z,19.73
2019-02-25T20:11:25.870Z,25.48
2019-02-25T20:13:55.071Z,17.10
2019-02-25T20:16:27.042Z,17.40
2019-02-25T20:18:55.889Z,18.52
2019-02-25T20:21:26.669Z,16.93
2019-02-25T20:23:56.004Z,16.32
2019-02-25T20:26:26.735Z,17.73
2019-02-25T20:28:55.037Z,20.75
2019-02-25T20:31:23.672Z,20.50
2019-02-25T20:33:53.066Z,19.32
2019-02-25T20:36:24.199Z,21.75
2019-02-25T20:38:53.066Z,21.82
2019-02-25T20:41:22.263Z,28.35
2019-02-25T20:43:53.852Z,17.62
2019-02-25T20:46:23.838Z,23.73
2019-02-25T20:48:53.152Z,19.67
2019-02-25T20:51:22.792Z,24.55
2019-02-25T20:53:53.020Z,16.97
2019-02-25T20:56:22.797Z,17.27
2019-02-25T20:58:52.508Z,17.98
2019-02-25T21:01:21.124Z,15.50
2019-02-25T21:03:50.448Z,16.55
2019-02-25T21:06:21.240Z,12.82
2019-02-25T21:08:49.990Z,11.85
2019-02-25T21:11:18.603Z,14.63
2019-02-25T21:13:47.163Z,15.00
2019-02-25T21:19:04.644Z,9.98
2019-02-25T21:21:34.654Z,11.03
2019-02-25T21:24:06.060Z,16.15
2019-02-25T21:26:36.403Z,12.63
2019-02-25T21:29:06.795Z,14.55
2019-02-25T21:31:35.160Z,11.65
2019-02-25T21:34:04.290Z,12.80
2019-02-25T21:36:33.869Z,12.05
2019-02-25T21:39:04.111Z,12.88
2019-02-25T21:41:32.790Z,11.70
2019-02-25T21:44:01.334Z,13.50
2019-02-25T21:46:31.590Z,14.93
2019-02-25T21:49:03.458Z,16.23
2019-02-25T21:51:49.698Z,14.60
2019-02-25T21:56:46.118Z,12.35
2019-02-25T21:59:17.019Z,12.47
2019-02-25T22:01:45.224Z,10.93
2019-02-25T22:04:15.588Z,14.20
2019-02-25T22:06:47.068Z,15.00
2019-02-25T22:09:14.839Z,19.90
2019-02-25T22:11:43.473Z,16.30
2019-02-25T22:14:12.307Z,19.32
2019-02-25T22:16:44.332Z,22.77
2019-02-25T22:19:14.195Z,21.55
2019-02-25T22:21:43.323Z,14.87
2019-02-25T22:24:11.860Z,18.30
2019-02-25T22:26:40.566Z,17.30
2019-02-25T22:29:09.106Z,13.98
2019-02-25T22:31:39.427Z,10.35
2019-02-25T22:34:08.835Z,12.43
2019-02-25T22:36:41.560Z,13.72
2019-02-25T22:39:09.478Z,13.62
2019-02-25T22:41:40.099Z,13.53
2019-02-25T22:44:08.970Z,13.25
2019-02-25T22:46:39.695Z,13.38
2019-02-25T22:49:09.480Z,14.28
2019-02-25T22:51:38.153Z,15.48
2019-02-25T22:54:10.089Z,13.20
2019-02-25T22:56:37.377Z,12.55
2019-02-25T22:59:05.912Z,11.68
2019-02-25T23:01:36.822Z,14.07
2019-02-25T23:04:05.074Z,11.95
2019-02-25T23:06:33.955Z,14.80
2019-02-25T23:09:02.707Z,13.90
2019-02-25T23:11:31.631Z,15.70
2019-02-25T23:14:00.348Z,13.50
2019-02-25T23:16:28.950Z,14.10
2019-02-25T23:18:57.410Z,12.03
2019-02-25T23:21:28.593Z,10.10
2019-02-25T23:23:58.127Z,12.55
2019-02-25T23:26:27.154Z,9.05
2019-02-25T23:28:57.748Z,10.70
2019-02-25T23:31:29.789Z,8.55
2019-02-25T23:33:57.606Z,11.43
2019-02-25T23:36:26.613Z,14.38
2019-02-25T23:38:57.004Z,13.08
2019-02-25T23:41:25.495Z,10.43
2019-02-25T23:43:54.368Z,13.13
2019-02-25T23:46:25.269Z,12.75
2019-02-25T23:48:53.182Z,10.93
2019-02-25T23:51:42.038Z,12.23
2019-02-25T23:54:12.140Z,13.50
2019-02-25T23:56:43.927Z,11.93
2019-02-25T23:59:14.601Z,11.73
